Time;durP1;ratioP1;P1;durP2;ratioP2;P2;SDS_P1;SDS_P2;PMS_P1;PMS_P2;Temp;Humidity;BMP_temperature;BMP_pressure;BME280_temperature;BME280_humidity;BME280_pressure;Samples;Min_cycle;Max_cycle;Signal;HPM_P1;HPM_P2
2021/08/27 00:02:16;;;;;;;2.05;1.30;;;;;;;;;;5078703;28;20609;-45
2021/08/27 00:04:42;;;;;;;0.90;0.90;;;;;;;;;;5078224;28;20194;-46
2021/08/27 00:07:08;;;;;;;1.20;1.13;;;;;;;;;;5089293;28;20566;-46
2021/08/27 00:09:34;;;;;;;2.00;1.25;;;;;;;;;;5082935;28;20182;-46
2021/08/27 00:12:00;;;;;;;1.42;1.30;;;;;;;;;;5082029;28;20188;-46
2021/08/27 00:14:26;;;;;;;1.20;1.10;;;;;;;;;;5080588;28;20182;-46
2021/08/27 00:16:52;;;;;;;2.63;1.30;;;;;;;;;;5080244;28;20236;-46
2021/08/27 00:19:18;;;;;;;2.03;1.23;;;;;;;;;;5092924;28;20181;-46
2021/08/27 00:21:44;;;;;;;1.52;1.27;;;;;;;;;;5096397;28;20184;-46
2021/08/27 00:24:10;;;;;;;1.55;1.40;;;;;;;;;;5081840;28;20245;-46
2021/08/27 00:26:37;;;;;;;1.33;1.02;;;;;;;;;;5076057;28;20193;-45
2021/08/27 00:29:03;;;;;;;0.98;0.95;;;;;;;;;;5075500;28;20166;-45
2021/08/27 00:31:29;;;;;;;1.45;1.20;;;;;;;;;;5079789;28;20186;-45
2021/08/27 00:33:55;;;;;;;1.50;1.08;;;;;;;;;;5085003;28;20183;-45
2021/08/27 00:36:21;;;;;;;2.05;1.15;;;;;;;;;;5095952;28;20220;-45
2021/08/27 00:38:47;;;;;;;1.70;1.00;;;;;;;;;;5102649;28;20237;-45
2021/08/27 00:41:14;;;;;;;1.13;1.00;;;;;;;;;;5098662;28;20196;-46
2021/08/27 00:43:40;;;;;;;1.30;1.20;;;;;;;;;;5095468;28;20193;-46
2021/08/27 00:46:06;;;;;;;3.20;1.23;;;;;;;;;;5077008;28;20259;-45
2021/08/27 00:48:32;;;;;;;1.35;1.10;;;;;;;;;;5095135;28;20178;-45
2021/08/27 00:50:58;;;;;;;1.00;0.95;;;;;;;;;;5094339;28;20169;-46
2021/08/27 00:53:24;;;;;;;1.20;1.00;;;;;;;;;;5095598;28;20562;-46
2021/08/27 00:55:50;;;;;;;1.63;1.10;;;;;;;;;;5095294;28;20178;-45
2021/08/27 00:58:16;;;;;;;1.27;1.17;;;;;;;;;;5094988;28;20253;-45
2021/08/27 01:00:45;;;;;;;1.33;1.10;;;;;;;;;;5094706;28;20612;-45
2021/08/27 01:03:13;;;;;;;1.17;1.08;;;;;;;;;;5093945;28;20206;-45
2021/08/27 01:05:42;;;;;;;1.30;1.00;;;;;;;;;;5090972;28;20175;-45
2021/08/27 01:08:20;;;;;;;1.92;1.30;;;;;;;;;;5091827;28;20231;-45
2021/08/27 01:10:49;;;;;;;2.88;1.40;;;;;;;;;;5095027;28;20200;-45
2021/08/27 01:13:33;;;;;;;1.02;0.98;;;;;;;;;;5095598;28;20260;-45
2021/08/27 01:16:02;;;;;;;1.30;1.05;;;;;;;;;;5077004;28;20194;-45
2021/08/27 01:18:39;;;;;;;1.63;1.10;;;;;;;;;;5087778;28;20194;-45
2021/08/27 01:21:18;;;;;;;1.20;1.10;;;;;;;;;;5087424;28;20449;-46
2021/08/27 01:23:45;;;;;;;1.30;0.98;;;;;;;;;;5079700;28;20206;-45
2021/08/27 01:26:13;;;;;;;1.02;1.00;;;;;;;;;;5085529;28;20178;-45
2021/08/27 01:28:40;;;;;;;0.95;0.90;;;;;;;;;;5087422;28;20265;-45
2021/08/27 01:31:30;;;;;;;1.25;1.15;;;;;;;;;;5094581;28;20213;-45
2021/08/27 01:34:00;;;;;;;1.63;1.00;;;;;;;;;;5066686;28;20185;-45
2021/08/27 01:36:26;;;;;;;0.98;0.90;;;;;;;;;;5094836;28;20184;-45
2021/08/27 01:38:53;;;;;;;1.10;1.00;;;;;;;;;;5101968;28;20181;-45
2021/08/27 01:41:20;;;;;;;1.27;1.00;;;;;;;;;;5100040;28;20196;-45
2021/08/27 01:43:46;;;;;;;0.95;0.90;;;;;;;;;;5094220;28;20202;-45
2021/08/27 01:46:13;;;;;;;0.88;0.88;;;;;;;;;;5086867;28;20182;-45
2021/08/27 01:48:39;;;;;;;1.63;0.90;;;;;;;;;;5085544;28;20177;-45
2021/08/27 01:51:07;;;;;;;0.90;0.90;;;;;;;;;;5094642;28;20448;-46
2021/08/27 01:53:33;;;;;;;1.77;1.00;;;;;;;;;;5074851;28;20187;-46
2021/08/27 01:56:00;;;;;;;2.25;1.17;;;;;;;;;;5080215;28;20197;-46
2021/08/27 01:58:27;;;;;;;1.08;0.98;;;;;;;;;;5088537;28;20757;-46
2021/08/27 02:00:55;;;;;;;0.80;0.80;;;;;;;;;;5086955;28;20474;-45
2021/08/27 02:03:21;;;;;;;0.93;0.93;;;;;;;;;;5074375;28;20202;-45
2021/08/27 02:05:48;;;;;;;1.35;1.00;;;;;;;;;;5083971;28;20170;-45
2021/08/27 02:08:16;;;;;;;1.00;0.90;;;;;;;;;;5093797;28;20174;-45
2021/08/27 02:10:42;;;;;;;0.70;0.70;;;;;;;;;;5094030;28;20231;-45
2021/08/27 02:13:09;;;;;;;1.40;1.00;;;;;;;;;;5094625;28;20173;-45
2021/08/27 02:15:36;;;;;;;0.85;0.85;;;;;;;;;;5080448;28;20188;-45
2021/08/27 02:18:02;;;;;;;0.88;0.88;;;;;;;;;;5082169;28;20553;-45
2021/08/27 02:20:29;;;;;;;0.80;0.80;;;;;;;;;;5092894;28;20188;-45
2021/08/27 02:22:55;;;;;;;0.80;0.80;;;;;;;;;;5074421;28;20194;-45
2021/08/27 02:25:22;;;;;;;0.70;0.70;;;;;;;;;;5083931;28;20174;-45
2021/08/27 02:27:49;;;;;;;0.85;0.80;;;;;;;;;;5079707;28;20186;-45
2021/08/27 02:30:16;;;;;;;0.75;0.75;;;;;;;;;;5082151;28;20262;-45
2021/08/27 02:32:43;;;;;;;0.80;0.80;;;;;;;;;;5077355;28;20604;-45
2021/08/27 02:35:10;;;;;;;1.00;0.90;;;;;;;;;;5078473;28;20167;-45
2021/08/27 02:37:37;;;;;;;1.10;0.90;;;;;;;;;;5081595;28;20185;-45
2021/08/27 02:40:04;;;;;;;1.30;1.20;;;;;;;;;;5106137;28;20200;-45
2021/08/27 02:42:31;;;;;;;0.70;0.70;;;;;;;;;;5091151;28;20189;-45
2021/08/27 02:44:58;;;;;;;0.60;0.60;;;;;;;;;;5098540;28;20625;-45
2021/08/27 02:47:24;;;;;;;0.90;0.85;;;;;;;;;;5085235;28;20186;-45
2021/08/27 02:49:50;;;;;;;0.90;0.90;;;;;;;;;;5086922;28;20176;-45
2021/08/27 02:52:33;;;;;;;0.82;0.82;;;;;;;;;;5094171;28;20179;-45
2021/08/27 02:55:28;;;;;;;0.77;0.75;;;;;;;;;;5088796;28;20253;-45
2021/08/27 02:58:05;;;;;;;0.70;0.70;;;;;;;;;;5087048;28;20178;-45
2021/08/27 03:00:33;;;;;;;0.80;0.77;;;;;;;;;;5088941;28;20178;-45
2021/08/27 03:03:01;;;;;;;0.75;0.70;;;;;;;;;;5077734;28;20228;-45
2021/08/27 03:05:30;;;;;;;0.90;0.80;;;;;;;;;;5086413;28;20249;-45
2021/08/27 03:08:02;;;;;;;1.27;0.63;;;;;;;;;;5088400;28;20173;-45
2021/08/27 03:10:28;;;;;;;0.70;0.70;;;;;;;;;;5097174;28;20182;-45
2021/08/27 03:13:05;;;;;;;1.02;0.70;;;;;;;;;;5097601;28;20441;-45
2021/08/27 03:15:34;;;;;;;0.80;0.80;;;;;;;;;;5095984;28;20185;-45
2021/08/27 03:18:06;;;;;;;0.80;0.80;;;;;;;;;;5096556;28;20557;-45
2021/08/27 03:20:39;;;;;;;0.73;0.70;;;;;;;;;;5088847;28;20189;-45
2021/08/27 03:23:08;;;;;;;0.90;0.73;;;;;;;;;;5097634;28;20572;-45
2021/08/27 03:25:38;;;;;;;1.30;0.80;;;;;;;;;;5085412;28;20210;-45
2021/08/27 03:28:06;;;;;;;1.15;0.77;;;;;;;;;;5085092;28;20177;-45
2021/08/27 03:30:33;;;;;;;0.80;0.80;;;;;;;;;;5094952;28;20170;-45
2021/08/27 03:33:02;;;;;;;0.60;0.60;;;;;;;;;;5077250;28;20162;-45
2021/08/27 03:35:29;;;;;;;0.80;0.80;;;;;;;;;;5095296;28;20188;-45
2021/08/27 03:37:55;;;;;;;1.65;0.80;;;;;;;;;;5096558;28;20225;-45
2021/08/27 03:40:22;;;;;;;0.50;0.50;;;;;;;;;;5096091;28;20463;-45
2021/08/27 03:42:48;;;;;;;0.82;0.70;;;;;;;;;;5095887;28;20196;-45
2021/08/27 03:45:17;;;;;;;0.80;0.80;;;;;;;;;;5079260;28;20206;-45
2021/08/27 03:47:43;;;;;;;1.77;0.70;;;;;;;;;;5081575;28;20239;-45
2021/08/27 03:50:10;;;;;;;1.85;0.90;;;;;;;;;;5097265;28;20235;-45
2021/08/27 03:52:37;;;;;;;0.90;0.90;;;;;;;;;;5096628;28;20174;-45
2021/08/27 03:55:04;;;;;;;0.68;0.68;;;;;;;;;;5097341;28;20553;-45
2021/08/27 03:57:31;;;;;;;0.80;0.80;;;;;;;;;;5081966;28;20224;-45
2021/08/27 03:59:58;;;;;;;0.65;0.65;;;;;;;;;;5096385;28;20434;-45
2021/08/27 04:02:24;;;;;;;0.73;0.73;;;;;;;;;;5084424;28;20466;-45
2021/08/27 04:04:50;;;;;;;0.50;0.50;;;;;;;;;;5076585;28;20648;-45
2021/08/27 04:07:18;;;;;;;0.60;0.60;;;;;;;;;;5085225;28;20203;-45
2021/08/27 04:09:44;;;;;;;0.60;0.60;;;;;;;;;;5096818;28;20182;-45
2021/08/27 04:12:10;;;;;;;4.20;1.15;;;;;;;;;;5096533;28;20244;-45
2021/08/27 04:14:36;;;;;;;14.32;3.10;;;;;;;;;;5087003;28;20178;-45
2021/08/27 04:17:04;;;;;;;12.38;3.78;;;;;;;;;;5075871;28;20256;-45
2021/08/27 04:19:30;;;;;;;13.63;3.03;;;;;;;;;;5085072;28;20174;-45
2021/08/27 04:21:56;;;;;;;8.65;2.50;;;;;;;;;;5080332;28;20183;-45
2021/08/27 04:24:24;;;;;;;9.57;2.53;;;;;;;;;;5075394;28;20199;-45
2021/08/27 04:26:50;;;;;;;7.90;2.28;;;;;;;;;;5087953;28;20238;-45
2021/08/27 04:29:16;;;;;;;8.18;2.50;;;;;;;;;;5084544;28;20590;-45
2021/08/27 04:31:42;;;;;;;8.77;2.35;;;;;;;;;;5096134;28;20173;-45
2021/08/27 04:34:08;;;;;;;10.05;2.65;;;;;;;;;;5095551;28;20213;-45
2021/08/27 04:36:34;;;;;;;13.38;2.47;;;;;;;;;;5075901;28;20167;-45
2021/08/27 04:39:00;;;;;;;5.60;2.28;;;;;;;;;;5101744;28;20518;-45
2021/08/27 04:41:26;;;;;;;6.97;2.08;;;;;;;;;;5094731;28;20273;-45
2021/08/27 04:43:52;;;;;;;6.75;1.92;;;;;;;;;;5086972;28;20209;-45
2021/08/27 04:46:18;;;;;;;5.65;1.83;;;;;;;;;;5093356;28;20178;-45
2021/08/27 04:48:45;;;;;;;6.15;2.35;;;;;;;;;;5095222;28;20177;-45
2021/08/27 04:51:12;;;;;;;4.03;1.90;;;;;;;;;;5088008;28;20469;-45
2021/08/27 04:53:38;;;;;;;6.68;1.75;;;;;;;;;;5075228;28;20446;-45
2021/08/27 04:56:04;;;;;;;4.40;1.70;;;;;;;;;;5081031;28;20182;-45
2021/08/27 04:58:30;;;;;;;6.45;2.28;;;;;;;;;;5082702;28;20183;-45
2021/08/27 05:00:56;;;;;;;7.57;2.30;;;;;;;;;;5093556;28;20192;-45
2021/08/27 05:03:22;;;;;;;7.43;2.28;;;;;;;;;;5080206;28;20205;-45
2021/08/27 05:05:48;;;;;;;5.80;2.33;;;;;;;;;;5089654;28;20609;-45
2021/08/27 05:08:14;;;;;;;6.45;1.83;;;;;;;;;;5076956;28;20175;-45
2021/08/27 05:10:39;;;;;;;4.72;1.83;;;;;;;;;;5076203;28;20265;-45
2021/08/27 05:13:06;;;;;;;5.63;2.35;;;;;;;;;;5085861;28;20171;-45
2021/08/27 05:15:31;;;;;;;7.22;1.98;;;;;;;;;;5091061;28;20177;-45
2021/08/27 05:17:57;;;;;;;5.22;1.80;;;;;;;;;;5094681;28;20177;-45
2021/08/27 05:20:24;;;;;;;5.57;2.10;;;;;;;;;;5094381;28;20245;-45
2021/08/27 05:22:50;;;;;;;5.50;1.80;;;;;;;;;;5074945;28;20412;-45
2021/08/27 05:25:16;;;;;;;5.57;2.10;;;;;;;;;;5086159;28;20285;-45
2021/08/27 05:27:43;;;;;;;4.25;1.63;;;;;;;;;;5093848;28;20260;-45
2021/08/27 05:30:10;;;;;;;5.53;1.73;;;;;;;;;;5095285;28;20217;-45
2021/08/27 05:32:36;;;;;;;2.95;1.75;;;;;;;;;;5075689;28;20182;-45
2021/08/27 05:35:02;;;;;;;4.63;1.63;;;;;;;;;;5075195;28;20171;-45
2021/08/27 05:37:28;;;;;;;3.75;1.40;;;;;;;;;;5083740;28;20188;-45
2021/08/27 05:39:54;;;;;;;4.47;1.73;;;;;;;;;;5106601;28;20181;-45
2021/08/27 05:42:20;;;;;;;3.28;1.40;;;;;;;;;;5083404;28;20319;-45
2021/08/27 05:44:46;;;;;;;2.80;1.40;;;;;;;;;;5093313;28;20240;-45
2021/08/27 05:47:12;;;;;;;6.53;1.75;;;;;;;;;;5093753;28;20178;-45
2021/08/27 05:49:38;;;;;;;3.22;1.67;;;;;;;;;;5092607;28;20178;-45
2021/08/27 05:52:04;;;;;;;5.43;1.67;;;;;;;;;;5092853;28;20182;-45
2021/08/27 05:54:31;;;;;;;1.98;1.20;;;;;;;;;;5094966;28;20231;-45
2021/08/27 05:56:57;;;;;;;3.88;1.40;;;;;;;;;;5080637;28;20187;-45
2021/08/27 05:59:23;;;;;;;2.97;1.17;;;;;;;;;;5075911;28;20252;-45
2021/08/27 06:01:49;;;;;;;1.88;1.40;;;;;;;;;;5074655;28;20189;-45
2021/08/27 06:04:15;;;;;;;1.70;1.00;;;;;;;;;;5087143;28;20196;-45
2021/08/27 06:06:41;;;;;;;2.75;1.20;;;;;;;;;;5092403;28;20737;-45
2021/08/27 06:09:07;;;;;;;2.47;1.40;;;;;;;;;;5094209;28;20663;-45
2021/08/27 06:11:36;;;;;;;1.58;1.05;;;;;;;;;;5094576;28;20178;-45
2021/08/27 06:14:02;;;;;;;2.70;1.23;;;;;;;;;;5076471;28;20178;-45
2021/08/27 06:16:29;;;;;;;2.17;1.20;;;;;;;;;;5079830;28;20603;-45
2021/08/27 06:18:54;;;;;;;1.77;1.27;;;;;;;;;;5082659;28;20564;-45
2021/08/27 06:21:20;;;;;;;2.67;1.15;;;;;;;;;;5076859;28;20292;-45
2021/08/27 06:23:47;;;;;;;3.40;1.42;;;;;;;;;;5074592;28;20458;-45
2021/08/27 06:26:13;;;;;;;2.88;1.30;;;;;;;;;;5074730;28;20596;-45
2021/08/27 06:28:38;;;;;;;2.13;1.02;;;;;;;;;;5089456;28;20254;-45
2021/08/27 06:31:05;;;;;;;2.72;1.38;;;;;;;;;;5093422;28;20257;-45
2021/08/27 06:33:31;;;;;;;2.63;1.08;;;;;;;;;;5065663;28;20177;-45
2021/08/27 06:35:58;;;;;;;1.88;1.45;;;;;;;;;;5093995;28;20173;-44
2021/08/27 06:38:25;;;;;;;2.55;1.35;;;;;;;;;;5097516;28;20499;-45
2021/08/27 06:40:58;;;;;;;1.40;1.10;;;;;;;;;;5100982;28;20446;-45
2021/08/27 06:43:27;;;;;;;2.85;1.10;;;;;;;;;;5074784;28;20328;-45
2021/08/27 06:45:53;;;;;;;1.90;1.05;;;;;;;;;;5074445;28;20171;-45
2021/08/27 06:48:19;;;;;;;4.10;1.40;;;;;;;;;;5081684;28;20189;-45
2021/08/27 06:50:45;;;;;;;2.13;1.00;;;;;;;;;;5087967;28;20179;-45
2021/08/27 06:53:11;;;;;;;2.80;0.90;;;;;;;;;;5074117;28;20534;-45
2021/08/27 06:55:37;;;;;;;1.58;0.93;;;;;;;;;;5075199;28;20193;-45
2021/08/27 06:58:04;;;;;;;1.40;1.00;;;;;;;;;;5087348;28;20174;-45
2021/08/27 07:00:30;;;;;;;1.83;1.25;;;;;;;;;;5093961;28;20170;-45
2021/08/27 07:02:56;;;;;;;2.10;0.93;;;;;;;;;;5093111;28;20261;-45
2021/08/27 07:05:22;;;;;;;1.95;1.17;;;;;;;;;;5093746;28;20482;-45
2021/08/27 07:07:48;;;;;;;2.90;1.10;;;;;;;;;;5093632;28;20261;-45
2021/08/27 07:10:14;;;;;;;2.80;1.02;;;;;;;;;;5093470;28;20158;-45
2021/08/27 07:12:40;;;;;;;1.50;1.10;;;;;;;;;;5076411;28;20167;-45
2021/08/27 07:15:07;;;;;;;2.08;1.13;;;;;;;;;;5094096;28;20178;-45
2021/08/27 07:17:33;;;;;;;2.42;1.35;;;;;;;;;;5083813;28;20441;-45
2021/08/27 07:19:59;;;;;;;1.95;1.17;;;;;;;;;;5096313;28;20182;-45
2021/08/27 07:22:25;;;;;;;2.05;1.00;;;;;;;;;;5097664;28;20269;-45
2021/08/27 07:24:51;;;;;;;1.10;1.00;;;;;;;;;;5097488;28;20723;-45
2021/08/27 07:27:17;;;;;;;2.55;1.13;;;;;;;;;;5088458;28;20212;-45
2021/08/27 07:29:43;;;;;;;1.50;1.10;;;;;;;;;;5082283;28;20447;-45
2021/08/27 07:32:12;;;;;;;1.52;1.00;;;;;;;;;;5077028;28;20558;-45
2021/08/27 07:34:40;;;;;;;2.15;1.00;;;;;;;;;;5077231;28;20171;-45
2021/08/27 07:37:06;;;;;;;2.65;1.08;;;;;;;;;;5079766;28;20175;-45
2021/08/27 07:39:32;;;;;;;1.50;1.10;;;;;;;;;;5104893;28;20196;-46
2021/08/27 07:41:58;;;;;;;1.83;0.98;;;;;;;;;;5106398;28;20185;-45
2021/08/27 07:44:24;;;;;;;3.30;1.10;;;;;;;;;;5096275;28;20537;-45
2021/08/27 07:46:50;;;;;;;2.05;1.10;;;;;;;;;;5083896;28;20207;-45
2021/08/27 07:49:16;;;;;;;2.33;0.95;;;;;;;;;;5081616;28;20253;-45
2021/08/27 07:51:46;;;;;;;1.02;0.80;;;;;;;;;;5081967;28;20181;-45
2021/08/27 07:54:12;;;;;;;1.55;1.00;;;;;;;;;;5088174;28;20182;-45
2021/08/27 07:56:38;;;;;;;1.58;0.85;;;;;;;;;;5078008;28;20190;-45
2021/08/27 07:59:04;;;;;;;0.95;0.90;;;;;;;;;;5076044;28;20170;-45
2021/08/27 08:01:30;;;;;;;1.25;0.70;;;;;;;;;;5088613;28;20188;-45
2021/08/27 08:03:57;;;;;;;1.35;0.82;;;;;;;;;;5076564;28;20198;-45
2021/08/27 08:06:23;;;;;;;1.17;0.98;;;;;;;;;;5076560;28;20179;-46
2021/08/27 08:08:52;;;;;;;1.73;0.88;;;;;;;;;;5092967;28;20216;-45
2021/08/27 08:11:18;;;;;;;1.00;0.90;;;;;;;;;;5096533;28;20165;-45
2021/08/27 08:13:44;;;;;;;0.63;0.60;;;;;;;;;;5096164;28;20185;-45
2021/08/27 08:16:10;;;;;;;1.02;0.90;;;;;;;;;;5088645;28;20546;-45
2021/08/27 08:18:36;;;;;;;1.75;0.90;;;;;;;;;;5089715;28;20182;-45
2021/08/27 08:21:03;;;;;;;1.00;0.98;;;;;;;;;;5094172;28;20435;-45
2021/08/27 08:23:29;;;;;;;1.10;1.00;;;;;;;;;;5095128;28;20205;-47
2021/08/27 08:25:55;;;;;;;1.50;0.85;;;;;;;;;;5093382;28;20182;-46
2021/08/27 08:28:21;;;;;;;1.83;0.90;;;;;;;;;;5080975;28;20192;-46
2021/08/27 08:30:48;;;;;;;1.15;0.73;;;;;;;;;;5079802;28;20174;-46
2021/08/27 08:33:14;;;;;;;1.15;0.80;;;;;;;;;;5096425;28;20170;-46
2021/08/27 08:35:40;;;;;;;1.80;0.70;;;;;;;;;;5087414;28;20213;-46
2021/08/27 08:38:06;;;;;;;2.05;0.80;;;;;;;;;;5092750;28;20186;-46
2021/08/27 08:40:32;;;;;;;1.48;0.90;;;;;;;;;;5105137;28;20197;-46
2021/08/27 08:42:58;;;;;;;1.05;0.93;;;;;;;;;;5093239;28;20272;-46
2021/08/27 08:45:24;;;;;;;1.17;0.77;;;;;;;;;;5095859;28;20170;-46
2021/08/27 08:47:52;;;;;;;0.85;0.82;;;;;;;;;;5078609;28;20553;-45
2021/08/27 08:50:19;;;;;;;2.58;0.90;;;;;;;;;;5079278;28;20231;-45
2021/08/27 08:52:47;;;;;;;0.60;0.60;;;;;;;;;;5095976;28;20173;-45
2021/08/27 08:55:13;;;;;;;1.35;0.98;;;;;;;;;;5094215;28;20210;-45
2021/08/27 08:57:39;;;;;;;0.75;0.70;;;;;;;;;;5082529;28;20170;-45
2021/08/27 09:00:05;;;;;;;1.40;0.85;;;;;;;;;;5094212;28;20613;-45
2021/08/27 09:02:32;;;;;;;1.27;1.00;;;;;;;;;;5094988;28;20173;-45
2021/08/27 09:04:57;;;;;;;2.25;1.10;;;;;;;;;;5095634;28;20198;-45
2021/08/27 09:07:23;;;;;;;1.42;0.80;;;;;;;;;;5094410;28;20181;-45
2021/08/27 09:09:50;;;;;;;0.70;0.70;;;;;;;;;;5077939;28;20227;-45
2021/08/27 09:12:17;;;;;;;1.13;0.95;;;;;;;;;;5081190;28;20173;-45
2021/08/27 09:14:54;;;;;;;1.08;0.60;;;;;;;;;;5095605;28;20169;-45
2021/08/27 09:17:27;;;;;;;0.77;0.77;;;;;;;;;;5081148;28;20193;-45
2021/08/27 09:19:53;;;;;;;0.82;0.73;;;;;;;;;;5084741;28;20640;-45
2021/08/27 09:22:20;;;;;;;1.05;0.70;;;;;;;;;;5078701;28;20174;-46
2021/08/27 09:25:03;;;;;;;1.30;0.70;;;;;;;;;;5095087;28;20190;-46
2021/08/27 09:27:29;;;;;;;1.65;0.93;;;;;;;;;;5076154;28;20212;-46
2021/08/27 09:29:55;;;;;;;0.60;0.60;;;;;;;;;;5084074;28;20201;-45
2021/08/27 09:32:27;;;;;;;1.30;0.90;;;;;;;;;;5076174;28;20538;-45
2021/08/27 09:35:02;;;;;;;1.02;0.90;;;;;;;;;;5074740;28;20251;-45
2021/08/27 09:37:35;;;;;;;1.35;0.98;;;;;;;;;;5077159;28;20192;-45
2021/08/27 09:40:04;;;;;;;1.30;0.73;;;;;;;;;;5103709;28;20174;-46
2021/08/27 09:42:37;;;;;;;1.27;0.80;;;;;;;;;;5091326;28;20206;-46
2021/08/27 09:45:03;;;;;;;0.70;0.70;;;;;;;;;;5094100;28;20304;-46
2021/08/27 09:47:29;;;;;;;1.15;0.68;;;;;;;;;;5091429;28;20584;-46
2021/08/27 09:49:55;;;;;;;0.60;0.60;;;;;;;;;;5095033;28;20189;-46
2021/08/27 09:52:21;;;;;;;1.40;0.80;;;;;;;;;;5077160;28;20174;-46
2021/08/27 09:54:48;;;;;;;0.60;0.60;;;;;;;;;;5091779;28;20243;-46
2021/08/27 09:57:14;;;;;;;0.60;0.60;;;;;;;;;;5090629;28;20178;-46
2021/08/27 09:59:46;;;;;;;1.08;0.80;;;;;;;;;;5077300;28;20261;-46
2021/08/27 10:02:17;;;;;;;0.80;0.80;;;;;;;;;;5093864;28;20246;-46
2021/08/27 10:04:54;;;;;;;0.70;0.68;;;;;;;;;;5094521;28;20255;-46
2021/08/27 10:07:28;;;;;;;0.88;0.85;;;;;;;;;;5091766;28;20250;-46
2021/08/27 10:09:55;;;;;;;0.68;0.65;;;;;;;;;;5094843;28;20173;-46
2021/08/27 10:12:21;;;;;;;3.10;0.80;;;;;;;;;;5087400;28;20226;-46
2021/08/27 10:14:49;;;;;;;1.13;0.80;;;;;;;;;;5094300;28;20182;-46
2021/08/27 10:17:15;;;;;;;1.13;0.80;;;;;;;;;;5092796;28;20188;-46
2021/08/27 10:19:41;;;;;;;0.63;0.63;;;;;;;;;;5074474;28;20174;-46
2021/08/27 10:22:07;;;;;;;0.65;0.60;;;;;;;;;;5074429;28;20187;-46
2021/08/27 10:24:33;;;;;;;1.08;0.80;;;;;;;;;;5074264;28;20600;-46
2021/08/27 10:27:00;;;;;;;0.85;0.70;;;;;;;;;;5085236;28;20174;-45
2021/08/27 10:29:26;;;;;;;0.98;0.88;;;;;;;;;;5094358;28;20193;-45
2021/08/27 10:31:53;;;;;;;0.90;0.80;;;;;;;;;;5094164;28;20182;-45
2021/08/27 10:34:38;;;;;;;0.65;0.60;;;;;;;;;;5094606;28;20192;-45
2021/08/27 10:37:04;;;;;;;0.47;0.47;;;;;;;;;;5093072;28;20261;-45
2021/08/27 10:39:41;;;;;;;0.63;0.60;;;;;;;;;;5101834;28;20209;-46
2021/08/27 10:42:08;;;;;;;0.70;0.70;;;;;;;;;;5096484;28;20216;-46
2021/08/27 10:44:53;;;;;;;0.60;0.60;;;;;;;;;;5094050;28;20209;-45
2021/08/27 10:47:19;;;;;;;0.73;0.70;;;;;;;;;;5093225;28;20181;-46
2021/08/27 10:49:45;;;;;;;1.05;0.70;;;;;;;;;;5094230;28;20166;-46
2021/08/27 10:52:23;;;;;;;0.60;0.60;;;;;;;;;;5074076;28;20192;-46
2021/08/27 10:55:08;;;;;;;0.80;0.63;;;;;;;;;;5083388;28;20285;-46
2021/08/27 10:57:44;;;;;;;0.95;0.80;;;;;;;;;;5077714;28;20193;-46
2021/08/27 11:00:11;;;;;;;0.88;0.70;;;;;;;;;;5087577;28;20183;-46
2021/08/27 11:02:53;;;;;;;0.70;0.60;;;;;;;;;;5077526;28;20174;-46
2021/08/27 11:05:35;;;;;;;1.77;0.65;;;;;;;;;;5083205;28;20188;-46
2021/08/27 11:08:02;;;;;;;2.20;0.80;;;;;;;;;;5083093;28;20182;-46
2021/08/27 11:10:28;;;;;;;0.88;0.70;;;;;;;;;;5097516;28;20188;-46
2021/08/27 11:13:00;;;;;;;0.88;0.70;;;;;;;;;;5097611;28;20181;-45
2021/08/27 11:15:30;;;;;;;0.63;0.60;;;;;;;;;;5090131;28;20181;-45
2021/08/27 11:18:06;;;;;;;1.55;0.93;;;;;;;;;;5091922;28;20182;-45
2021/08/27 11:20:32;;;;;;;0.63;0.63;;;;;;;;;;5095062;28;20201;-46
2021/08/27 11:22:58;;;;;;;0.85;0.60;;;;;;;;;;5093095;28;20439;-45
2021/08/27 11:25:25;;;;;;;1.05;0.73;;;;;;;;;;5097213;28;20184;-46
2021/08/27 11:28:08;;;;;;;0.57;0.57;;;;;;;;;;5096846;28;20261;-46
2021/08/27 11:30:34;;;;;;;0.82;0.50;;;;;;;;;;5097306;28;20255;-46
2021/08/27 11:33:01;;;;;;;0.57;0.57;;;;;;;;;;5095782;28;20206;-46
2021/08/27 11:35:29;;;;;;;0.60;0.60;;;;;;;;;;5092536;28;20185;-45
2021/08/27 11:37:56;;;;;;;0.70;0.70;;;;;;;;;;5085664;28;20178;-45
2021/08/27 11:40:22;;;;;;;0.57;0.57;;;;;;;;;;5097349;28;20180;-45
2021/08/27 11:42:53;;;;;;;0.63;0.50;;;;;;;;;;5101639;28;20243;-45
2021/08/27 11:45:20;;;;;;;0.50;0.50;;;;;;;;;;5096860;28;20232;-45
2021/08/27 11:47:47;;;;;;;0.63;0.63;;;;;;;;;;5082546;28;20568;-45
2021/08/27 11:50:14;;;;;;;0.50;0.50;;;;;;;;;;5087458;28;20255;-45
2021/08/27 11:52:43;;;;;;;0.50;0.50;;;;;;;;;;5097094;28;20437;-45
2021/08/27 11:55:17;;;;;;;0.82;0.60;;;;;;;;;;5093806;28;20777;-45
2021/08/27 11:57:53;;;;;;;1.17;0.70;;;;;;;;;;5087614;28;20171;-45
2021/08/27 12:00:20;;;;;;;0.50;0.50;;;;;;;;;;5091054;28;20189;-45
2021/08/27 12:02:51;;;;;;;0.55;0.55;;;;;;;;;;5097150;28;20537;-45
2021/08/27 12:05:17;;;;;;;0.77;0.60;;;;;;;;;;5095122;28;20899;-46
2021/08/27 12:07:54;;;;;;;0.80;0.70;;;;;;;;;;5083232;28;20216;-45
2021/08/27 12:10:20;;;;;;;0.60;0.60;;;;;;;;;;5076709;28;20295;-45
2021/08/27 12:12:47;;;;;;;0.70;0.70;;;;;;;;;;5076530;28;20166;-45
2021/08/27 12:15:18;;;;;;;0.50;0.50;;;;;;;;;;5087044;28;20263;-45
2021/08/27 12:17:53;;;;;;;0.55;0.55;;;;;;;;;;5086487;28;20181;-45
2021/08/27 12:20:20;;;;;;;1.10;0.80;;;;;;;;;;5096448;28;20268;-45
2021/08/27 12:22:48;;;;;;;0.85;0.75;;;;;;;;;;5095299;28;20230;-45
2021/08/27 12:25:21;;;;;;;0.68;0.68;;;;;;;;;;5085592;28;20972;-45
2021/08/27 12:27:49;;;;;;;0.47;0.47;;;;;;;;;;5092579;28;20162;-45
2021/08/27 12:30:15;;;;;;;0.77;0.75;;;;;;;;;;5095477;28;20205;-45
2021/08/27 12:32:42;;;;;;;0.57;0.57;;;;;;;;;;5079335;28;20178;-45
2021/08/27 12:35:09;;;;;;;0.70;0.70;;;;;;;;;;5096387;28;20314;-45
2021/08/27 12:37:39;;;;;;;0.60;0.52;;;;;;;;;;5095032;28;20196;-45
2021/08/27 12:40:06;;;;;;;0.70;0.70;;;;;;;;;;5105136;28;20795;-45
2021/08/27 12:42:32;;;;;;;1.10;0.60;;;;;;;;;;5090628;28;20204;-45
2021/08/27 12:44:58;;;;;;;0.85;0.70;;;;;;;;;;5094403;28;20198;-45
2021/08/27 12:47:31;;;;;;;1.15;0.63;;;;;;;;;;5095233;28;20481;-45
2021/08/27 12:50:07;;;;;;;0.70;0.70;;;;;;;;;;5095740;28;20553;-45
2021/08/27 12:52:33;;;;;;;0.60;0.60;;;;;;;;;;5095254;28;20270;-45
2021/08/27 12:55:00;;;;;;;0.57;0.57;;;;;;;;;;5088975;28;20193;-45
2021/08/27 12:57:26;;;;;;;0.75;0.70;;;;;;;;;;5076263;28;20186;-45
2021/08/27 12:59:55;;;;;;;1.13;0.65;;;;;;;;;;5091675;28;20178;-45
2021/08/27 13:02:21;;;;;;;0.50;0.50;;;;;;;;;;5094477;28;20185;-45
2021/08/27 13:04:49;;;;;;;0.68;0.52;;;;;;;;;;5095673;28;20212;-45
2021/08/27 13:07:25;;;;;;;0.68;0.60;;;;;;;;;;5094816;28;20184;-45
2021/08/27 13:09:53;;;;;;;0.50;0.50;;;;;;;;;;5095183;28;20170;-45
2021/08/27 13:12:31;;;;;;;0.93;0.60;;;;;;;;;;5091351;28;20183;-45
2021/08/27 13:14:57;;;;;;;0.90;0.73;;;;;;;;;;5083682;28;20181;-45
2021/08/27 13:17:24;;;;;;;0.63;0.63;;;;;;;;;;5094428;28;20186;-45
2021/08/27 13:19:55;;;;;;;0.80;0.65;;;;;;;;;;5083786;28;20213;-44
2021/08/27 13:22:24;;;;;;;1.08;0.70;;;;;;;;;;5075086;28;20178;-45
2021/08/27 13:24:58;;;;;;;0.57;0.57;;;;;;;;;;5088247;28;20292;-45
2021/08/27 13:27:25;;;;;;;1.10;0.63;;;;;;;;;;5077689;28;20205;-45
2021/08/27 13:29:51;;;;;;;3.58;0.82;;;;;;;;;;5075854;28;20641;-44
2021/08/27 13:32:26;;;;;;;0.57;0.57;;;;;;;;;;5090952;28;20256;-44
2021/08/27 13:34:52;;;;;;;0.95;0.77;;;;;;;;;;5095179;28;20260;-45
2021/08/27 13:37:18;;;;;;;0.95;0.80;;;;;;;;;;5078574;28;20460;-44
2021/08/27 13:39:46;;;;;;;0.95;0.68;;;;;;;;;;5102203;28;20188;-44
2021/08/27 13:42:12;;;;;;;2.40;0.80;;;;;;;;;;5087603;28;20186;-44
2021/08/27 13:44:38;;;;;;;0.63;0.63;;;;;;;;;;5074652;28;20516;-45
2021/08/27 13:47:06;;;;;;;1.95;0.80;;;;;;;;;;5093193;28;20536;-45
2021/08/27 13:49:32;;;;;;;0.93;0.85;;;;;;;;;;5094151;28;20231;-45
2021/08/27 13:51:58;;;;;;;0.98;0.80;;;;;;;;;;5094525;28;20178;-45
2021/08/27 13:54:24;;;;;;;1.02;0.70;;;;;;;;;;5085132;28;20178;-45
2021/08/27 13:56:51;;;;;;;1.92;0.88;;;;;;;;;;5078349;28;20614;-45
2021/08/27 13:59:17;;;;;;;1.17;0.70;;;;;;;;;;5094187;28;20444;-45
2021/08/27 14:01:43;;;;;;;1.60;0.82;;;;;;;;;;5092379;28;20186;-45
2021/08/27 14:04:09;;;;;;;4.15;0.80;;;;;;;;;;5094537;28;20202;-45
2021/08/27 14:06:35;;;;;;;1.92;0.90;;;;;;;;;;5093951;28;20181;-45
2021/08/27 14:09:01;;;;;;;1.75;0.70;;;;;;;;;;5077031;28;20182;-45
2021/08/27 14:11:28;;;;;;;1.00;0.70;;;;;;;;;;5074466;28;20499;-45
2021/08/27 14:13:54;;;;;;;2.90;1.08;;;;;;;;;;5075017;28;20209;-45
2021/08/27 14:16:20;;;;;;;2.67;0.90;;;;;;;;;;5074063;28;20232;-45
2021/08/27 14:18:46;;;;;;;1.23;0.88;;;;;;;;;;5075111;28;20182;-45
2021/08/27 14:21:11;;;;;;;1.45;0.70;;;;;;;;;;5088977;28;20512;-45
2021/08/27 14:23:38;;;;;;;1.95;0.95;;;;;;;;;;5077496;28;20201;-45
2021/08/27 14:26:04;;;;;;;2.03;0.90;;;;;;;;;;5093959;28;20493;-45
2021/08/27 14:28:30;;;;;;;1.65;0.82;;;;;;;;;;5096436;28;20170;-45
2021/08/27 14:30:56;;;;;;;0.95;0.80;;;;;;;;;;5097742;28;20181;-45
2021/08/27 14:33:25;;;;;;;1.17;0.98;;;;;;;;;;5098558;28;20222;-45
2021/08/27 14:35:51;;;;;;;2.10;0.80;;;;;;;;;;5093790;28;20170;-45
2021/08/27 14:38:17;;;;;;;1.50;0.70;;;;;;;;;;5096378;28;20570;-44
2021/08/27 14:40:43;;;;;;;0.90;0.65;;;;;;;;;;5110214;28;20203;-44
2021/08/27 14:43:09;;;;;;;0.60;0.60;;;;;;;;;;5100651;28;20186;-44
2021/08/27 14:45:35;;;;;;;1.60;0.98;;;;;;;;;;5097579;28;20187;-44
2021/08/27 14:48:01;;;;;;;1.98;0.95;;;;;;;;;;5097215;28;20186;-44